createdAt,value
2022-08-05T00:00:46.345Z,957.74
2022-08-05T00:01:48.983Z,957.77
2022-08-05T00:02:40.502Z,957.77
2022-08-05T00:03:40.418Z,957.78
2022-08-05T00:04:40.409Z,957.80
2022-08-05T00:06:04.822Z,957.78
2022-08-05T00:06:41.389Z,957.78
2022-08-05T00:08:01.047Z,957.79
2022-08-05T00:08:41.361Z,957.82
2022-08-05T00:09:40.353Z,957.88
2022-08-05T00:10:40.368Z,957.86
2022-08-05T00:11:49.057Z,957.87
2022-08-05T00:12:56.581Z,957.88
2022-08-05T00:13:41.311Z,957.90
2022-08-05T00:14:40.296Z,957.90
2022-08-05T00:15:57.685Z,957.92
2022-08-05T00:16:52.712Z,957.90
2022-08-05T00:17:40.265Z,957.92
2022-08-05T00:18:40.262Z,957.89
2022-08-05T00:19:44.159Z,957.93
2022-08-05T00:20:41.236Z,957.95
2022-08-05T00:21:42.691Z,957.96
2022-08-05T00:22:40.226Z,957.99
2022-08-05T00:23:46.915Z,958.04
2022-08-05T00:24:42.550Z,958.04
2022-08-05T00:25:46.069Z,958.02
2022-08-05T00:26:50.730Z,958.04
2022-08-05T00:27:40.452Z,958.08
2022-08-05T00:28:40.151Z,958.07
2022-08-05T00:29:40.129Z,958.10
2022-08-05T00:30:41.040Z,958.07
2022-08-05T00:31:53.862Z,958.08
2022-08-05T00:32:41.183Z,958.07
2022-08-05T00:34:54.151Z,958.03
2022-08-05T00:34:55.924Z,958.06
2022-08-05T00:35:47.770Z,958.02
2022-08-05T00:37:10.275Z,957.97
2022-08-05T00:37:52.886Z,958.03
2022-08-05T00:38:40.034Z,958.09
2022-08-05T00:39:43.959Z,958.10
2022-08-05T00:40:41.016Z,958.14
2022-08-05T00:41:52.217Z,958.15
2022-08-05T00:42:40.022Z,958.14
2022-08-05T00:43:46.567Z,958.13
2022-08-05T00:44:39.978Z,958.16
2022-08-05T00:45:43.768Z,958.18
2022-08-05T00:46:42.571Z,958.19
2022-08-05T00:47:56.926Z,958.23
2022-08-05T00:48:50.610Z,958.22
2022-08-05T00:49:44.665Z,958.22
2022-08-05T00:50:41.376Z,958.22
2022-08-05T00:51:50.806Z,958.19
2022-08-05T00:52:39.889Z,958.25
2022-08-05T00:54:00.820Z,958.33
2022-08-05T00:54:40.872Z,958.35
2022-08-05T00:55:42.833Z,958.36
2022-08-05T00:56:47.030Z,958.35
2022-08-05T00:57:58.655Z,958.36
2022-08-05T00:58:42.599Z,958.40
2022-08-05T00:59:44.218Z,958.47
2022-08-05T01:00:39.871Z,958.41
2022-08-05T01:01:42.685Z,958.45
2022-08-05T01:02:39.790Z,958.45
2022-08-05T01:03:39.790Z,958.47
2022-08-05T01:04:42.187Z,958.45
2022-08-05T01:05:39.756Z,958.42
2022-08-05T01:06:39.735Z,958.50
2022-08-05T01:08:40.389Z,958.52
2022-08-05T01:08:44.310Z,958.53
2022-08-05T01:09:39.714Z,958.60
2022-08-05T01:10:39.707Z,958.65
2022-08-05T01:11:42.685Z,958.62
2022-08-05T01:12:39.694Z,958.63
2022-08-05T01:13:58.765Z,958.63
2022-08-05T01:14:40.659Z,958.71
2022-08-05T01:15:39.646Z,958.70
2022-08-05T01:16:39.637Z,958.69
2022-08-05T01:17:39.860Z,958.75
2022-08-05T01:18:39.609Z,958.81
2022-08-05T01:20:00.995Z,958.77
2022-08-05T01:20:40.590Z,958.80
2022-08-05T01:21:39.586Z,958.80
2022-08-05T01:22:39.687Z,958.84
2022-08-05T01:23:39.561Z,958.82
2022-08-05T01:24:40.607Z,958.83
2022-08-05T01:25:41.555Z,958.82
2022-08-05T01:26:43.541Z,958.80
2022-08-05T01:27:55.475Z,958.80
2022-08-05T01:28:40.958Z,958.80
2022-08-05T01:29:39.505Z,958.80
2022-08-05T01:30:39.495Z,958.88
2022-08-05T01:31:42.733Z,958.92
2022-08-05T01:32:39.466Z,958.92
2022-08-05T01:33:39.458Z,958.95
2022-08-05T01:34:39.455Z,958.99
2022-08-05T01:35:52.981Z,959.00
2022-08-05T01:36:42.223Z,959.02
2022-08-05T01:37:44.307Z,959.02
2022-08-05T01:38:39.408Z,959.12
2022-08-05T01:39:47.211Z,959.07
2022-08-05T01:40:39.408Z,959.14
2022-08-05T01:41:44.514Z,959.21
2022-08-05T01:42:39.378Z,959.25
2022-08-05T01:43:39.430Z,959.32
2022-08-05T01:44:39.390Z,959.32
2022-08-05T01:45:43.065Z,959.25
2022-08-05T01:46:41.424Z,959.26
2022-08-05T01:47:43.317Z,959.26
2022-08-05T01:48:39.309Z,959.22
2022-08-05T01:50:00.329Z,959.22
2022-08-05T01:50:40.279Z,959.25
2022-08-05T01:51:39.270Z,959.21
2022-08-05T01:52:39.255Z,959.17
2022-08-05T01:53:57.517Z,959.20
2022-08-05T01:54:46.129Z,959.23
2022-08-05T01:55:39.226Z,959.25
2022-08-05T01:58:09.266Z,959.30
2022-08-05T01:58:09.489Z,959.28
2022-08-05T01:58:45.023Z,959.34
2022-08-05T01:59:39.173Z,959.37
2022-08-05T02:00:39.173Z,959.40
2022-08-05T02:01:40.185Z,959.46
2022-08-05T02:02:39.155Z,959.53
2022-08-05T02:03:39.138Z,959.58
2022-08-05T02:04:40.597Z,959.63
2022-08-05T02:05:39.125Z,959.71
2022-08-05T02:06:39.345Z,959.76
2022-08-05T02:07:39.099Z,959.82
2022-08-05T02:08:54.811Z,959.86
2022-08-05T02:09:40.098Z,959.90
2022-08-05T02:10:39.059Z,959.91
2022-08-05T02:11:42.478Z,959.89
2022-08-05T02:12:39.057Z,959.88
2022-08-05T02:13:53.824Z,959.82
2022-08-05T02:14:39.029Z,959.73
2022-08-05T02:15:39.008Z,959.68
2022-08-05T02:16:38.996Z,959.61
2022-08-05T02:18:32.611Z,959.51
2022-08-05T02:18:41.957Z,959.47
2022-08-05T02:19:47.446Z,959.43
2022-08-05T02:20:39.279Z,959.39
2022-08-05T02:21:43.403Z,959.35
2022-08-05T02:22:38.945Z,959.32
2022-08-05T02:23:39.166Z,959.29
2022-08-05T02:24:38.919Z,959.31
2022-08-05T02:25:49.428Z,959.27
2022-08-05T02:26:53.919Z,959.21
2022-08-05T02:27:59.252Z,959.18
2022-08-05T02:28:41.775Z,959.15
2022-08-05T02:29:59.914Z,959.11
2022-08-05T02:30:51.812Z,959.12
2022-08-05T02:31:38.855Z,959.12
2022-08-05T02:32:38.833Z,959.13
2022-08-05T02:33:39.404Z,959.10
2022-08-05T02:34:38.816Z,959.09
2022-08-05T02:35:44.918Z,959.11
2022-08-05T02:36:39.806Z,959.09
2022-08-05T02:37:38.768Z,959.08
2022-08-05T02:38:38.770Z,959.10
2022-08-05T02:39:38.830Z,959.07
2022-08-05T02:40:38.741Z,959.04
2022-08-05T02:41:57.574Z,959.08
2022-08-05T02:42:39.755Z,959.02
2022-08-05T02:43:38.712Z,959.04
2022-08-05T02:44:39.708Z,959.03
2022-08-05T02:45:52.658Z,959.02
2022-08-05T02:46:53.789Z,958.98
2022-08-05T02:48:06.641Z,959.00
2022-08-05T02:48:39.662Z,958.94
2022-08-05T02:49:40.691Z,958.97
2022-08-05T02:50:38.642Z,958.95
2022-08-05T02:52:04.340Z,958.94
2022-08-05T02:52:39.646Z,958.94
2022-08-05T02:53:39.693Z,958.91
2022-08-05T02:54:41.461Z,958.85
2022-08-05T02:55:54.608Z,958.86
2022-08-05T02:56:43.514Z,958.81
2022-08-05T02:58:20.218Z,958.84
2022-08-05T02:58:43.731Z,958.80
2022-08-05T02:59:50.446Z,958.80
2022-08-05T03:00:38.535Z,958.78
2022-08-05T03:01:38.568Z,958.79
2022-08-05T03:02:38.523Z,958.77
2022-08-05T03:04:02.075Z,958.75
2022-08-05T03:04:39.496Z,958.73
2022-08-05T03:06:54.112Z,958.79
2022-08-05T03:06:56.651Z,958.74
2022-08-05T03:07:59.298Z,958.79
2022-08-05T03:08:42.341Z,958.77
2022-08-05T03:09:43.970Z,958.73
2022-08-05T03:10:38.433Z,958.74
2022-08-05T03:11:41.421Z,958.72
2022-08-05T03:12:39.422Z,958.68
2022-08-05T03:13:51.854Z,958.71
2022-08-05T03:14:45.871Z,958.65
2022-08-05T03:15:38.372Z,958.63
2022-08-05T03:16:38.364Z,958.66
2022-08-05T03:17:41.631Z,958.59
2022-08-05T03:18:38.354Z,958.55
2022-08-05T03:19:38.335Z,958.57
2022-08-05T03:20:38.314Z,958.56
2022-08-05T03:21:41.316Z,958.52
2022-08-05T03:22:38.305Z,958.50
2022-08-05T03:23:38.408Z,958.52
2022-08-05T03:24:38.284Z,958.53
2022-08-05T03:26:04.628Z,958.48
2022-08-05T03:26:42.298Z,958.45
2022-08-05T03:27:58.949Z,958.44
2022-08-05T03:28:39.243Z,958.45
2022-08-05T03:29:45.796Z,958.46
2022-08-05T03:30:41.043Z,958.44
2022-08-05T03:31:56.772Z,958.43
2022-08-05T03:32:39.200Z,958.39
2022-08-05T03:33:50.933Z,958.40
2022-08-05T03:34:38.177Z,958.37
2022-08-05T03:35:40.924Z,958.33
2022-08-05T03:36:38.181Z,958.38
2022-08-05T03:37:46.325Z,958.36
2022-08-05T03:38:38.190Z,958.32
2022-08-05T03:39:47.282Z,958.31
2022-08-05T03:40:39.245Z,958.32
2022-08-05T03:41:46.734Z,958.25
2022-08-05T03:42:41.853Z,958.27
2022-08-05T03:44:08.972Z,958.24
2022-08-05T03:44:39.013Z,958.25
2022-08-05T03:45:57.254Z,958.26
2022-08-05T03:46:38.999Z,958.24
2022-08-05T03:47:41.295Z,958.22
2022-08-05T03:48:37.975Z,958.25
2022-08-05T03:49:51.566Z,958.22
2022-08-05T03:50:37.986Z,958.24
2022-08-05T03:52:37.324Z,958.21
2022-08-05T03:54:59.334Z,958.21
2022-08-05T03:55:49.827Z,958.22
2022-08-05T03:55:52.347Z,958.18
2022-08-05T03:56:05.472Z,958.20
2022-08-05T03:56:41.885Z,958.19
2022-08-05T03:57:41.801Z,958.19
2022-08-05T03:58:37.869Z,958.18
2022-08-05T03:59:47.286Z,958.17
2022-08-05T04:00:38.991Z,958.18
2022-08-05T04:01:37.955Z,958.18
2022-08-05T04:02:52.299Z,958.20
2022-08-05T04:03:38.817Z,958.15
2022-08-05T04:04:38.858Z,958.18
2022-08-05T04:05:37.795Z,958.18
2022-08-05T04:06:37.782Z,958.17
2022-08-05T04:07:53.182Z,958.18
2022-08-05T04:08:38.765Z,958.13
2022-08-05T04:09:37.784Z,958.13
2022-08-05T04:10:38.755Z,958.10
2022-08-05T04:11:47.645Z,958.13
2022-08-05T04:13:12.071Z,958.11
2022-08-05T04:14:12.044Z,958.15
2022-08-05T04:15:15.578Z,958.12
2022-08-05T04:16:12.023Z,958.11
2022-08-05T04:17:12.000Z,958.12
2022-08-05T04:18:20.548Z,958.16
2022-08-05T04:19:11.981Z,958.17
2022-08-05T04:20:11.990Z,958.16
2022-08-05T04:21:11.960Z,958.19
2022-08-05T04:22:12.972Z,958.20
2022-08-05T04:23:12.569Z,958.22
2022-08-05T04:24:18.741Z,958.24
2022-08-05T04:25:11.925Z,958.27
2022-08-05T04:26:15.917Z,958.26
2022-08-05T04:27:11.937Z,958.23
2022-08-05T04:28:12.942Z,958.28
2022-08-05T04:29:11.885Z,958.25
2022-08-05T04:30:11.877Z,958.26
2022-08-05T04:31:11.858Z,958.27
2022-08-05T04:32:11.897Z,958.25
2022-08-05T04:33:12.856Z,958.25
2022-08-05T04:34:18.526Z,958.22
2022-08-05T04:35:17.741Z,958.19
2022-08-05T04:36:44.672Z,958.24
2022-08-05T04:37:12.887Z,958.16
2022-08-05T04:38:11.782Z,958.20
2022-08-05T04:39:11.881Z,958.16
2022-08-05T04:40:11.951Z,958.19
2022-08-05T04:41:14.758Z,958.20
2022-08-05T04:42:11.762Z,958.18
2022-08-05T04:43:16.633Z,958.19
2022-08-05T04:44:11.720Z,958.16
2022-08-05T04:45:14.119Z,958.17
2022-08-05T04:46:12.716Z,958.24
2022-08-05T04:47:16.978Z,958.18
2022-08-05T04:48:18.600Z,958.18
2022-08-05T04:49:14.799Z,958.17
2022-08-05T04:50:11.867Z,958.16
2022-08-05T04:51:12.652Z,958.19
2022-08-05T04:52:11.720Z,958.19
2022-08-05T04:53:11.624Z,958.17
2022-08-05T04:54:12.097Z,958.14
2022-08-05T04:55:14.548Z,958.13
2022-08-05T04:56:34.299Z,958.16
2022-08-05T04:57:12.616Z,958.12
2022-08-05T04:58:12.449Z,958.19
2022-08-05T04:59:22.072Z,958.13
2022-08-05T05:00:11.546Z,958.18
2022-08-05T05:01:11.615Z,958.15
2022-08-05T05:02:36.742Z,958.18
2022-08-05T05:03:12.570Z,958.23
2022-08-05T05:04:11.509Z,958.24
2022-08-05T05:05:16.692Z,958.21
2022-08-05T05:06:38.738Z,958.23
2022-08-05T05:07:12.480Z,958.21
2022-08-05T05:08:14.425Z,958.21
2022-08-05T05:09:13.272Z,958.24
2022-08-05T05:10:11.482Z,958.20
2022-08-05T05:11:15.307Z,958.26
2022-08-05T05:12:11.737Z,958.23
2022-08-05T05:13:11.427Z,958.28
2022-08-05T05:14:16.193Z,958.32
2022-08-05T05:15:12.442Z,958.35
2022-08-05T05:17:11.380Z,958.45
2022-08-05T05:18:11.364Z,958.53
2022-08-05T05:19:18.745Z,958.53
2022-08-05T05:20:11.352Z,958.48
2022-08-05T05:21:11.345Z,958.46
2022-08-05T05:22:22.718Z,958.40
2022-08-05T05:23:19.745Z,958.35
2022-08-05T05:24:11.305Z,958.32
2022-08-05T05:25:17.151Z,958.33
2022-08-05T05:26:14.289Z,958.34
2022-08-05T05:27:12.285Z,958.33
2022-08-05T05:28:11.288Z,958.35
2022-08-05T05:29:14.536Z,958.40
2022-08-05T05:30:15.729Z,958.45
2022-08-05T05:31:12.232Z,958.41
2022-08-05T05:32:12.739Z,958.45
2022-08-05T05:33:17.156Z,958.47
2022-08-05T05:34:11.208Z,958.50
2022-08-05T05:35:11.202Z,958.51
2022-08-05T05:36:11.180Z,958.54
2022-08-05T05:37:11.211Z,958.53
2022-08-05T05:38:13.112Z,958.52
2022-08-05T05:39:11.216Z,958.55
2022-08-05T05:40:11.157Z,958.55
2022-08-05T05:41:14.121Z,958.52
2022-08-05T05:42:11.157Z,958.55
2022-08-05T05:43:11.100Z,958.54
2022-08-05T05:44:35.777Z,958.54
2022-08-05T05:45:12.081Z,958.53
2022-08-05T05:46:15.901Z,958.50
2022-08-05T05:47:23.652Z,958.50
2022-08-05T05:48:11.056Z,958.54
2022-08-05T05:49:22.996Z,958.52
2022-08-05T05:50:11.030Z,958.50
2022-08-05T05:51:15.812Z,958.50
2022-08-05T05:52:13.313Z,958.52
2022-08-05T05:53:22.378Z,958.52
2022-08-05T05:55:13.263Z,958.56
2022-08-05T05:56:13.976Z,958.52
2022-08-05T05:57:23.361Z,958.54
2022-08-05T05:58:10.959Z,958.54
2022-08-05T05:59:10.959Z,958.56
2022-08-05T06:00:10.941Z,958.54
2022-08-05T06:01:13.093Z,958.59
2022-08-05T06:02:10.915Z,958.63
2022-08-05T06:03:40.624Z,958.66
2022-08-05T06:05:17.004Z,958.68
2022-08-05T06:06:10.881Z,958.72
2022-08-05T06:07:10.852Z,958.76
2022-08-05T06:08:10.841Z,958.69
2022-08-05T06:09:17.063Z,958.71
2022-08-05T06:10:11.829Z,958.74
2022-08-05T06:11:13.856Z,958.74
2022-08-05T06:12:10.825Z,958.80
2022-08-05T06:13:10.793Z,958.83
2022-08-05T06:14:10.773Z,958.79
2022-08-05T06:15:16.202Z,958.81
2022-08-05T06:16:28.883Z,958.83
2022-08-05T06:17:22.202Z,958.80
2022-08-05T06:18:10.746Z,958.86
2022-08-05T06:19:10.737Z,958.87
2022-08-05T06:20:21.477Z,958.85
2022-08-05T06:21:18.544Z,958.89
2022-08-05T06:22:10.696Z,958.91
2022-08-05T06:23:10.679Z,958.96
2022-08-05T06:24:11.824Z,958.99
2022-08-05T06:25:24.379Z,959.03
2022-08-05T06:26:21.198Z,959.12
2022-08-05T06:27:17.085Z,959.16
2022-08-05T06:28:21.405Z,959.25
2022-08-05T06:29:25.559Z,959.32
2022-08-05T06:30:19.987Z,959.37
2022-08-05T06:31:11.235Z,959.39
2022-08-05T06:32:25.825Z,959.41
2022-08-05T06:33:11.584Z,959.46
2022-08-05T06:34:11.570Z,959.47
2022-08-05T06:35:15.561Z,959.53
2022-08-05T06:36:11.572Z,959.53
2022-08-05T06:37:10.533Z,959.55
2022-08-05T06:38:11.696Z,959.55
2022-08-05T06:39:10.559Z,959.55
2022-08-05T06:40:10.545Z,959.51
2022-08-05T06:41:13.499Z,959.54
2022-08-05T06:42:10.504Z,959.50
2022-08-05T06:43:59.116Z,959.49
2022-08-05T06:44:11.464Z,959.49
2022-08-05T06:45:10.457Z,959.46
2022-08-05T06:46:11.436Z,959.50
2022-08-05T06:47:29.952Z,959.45
2022-08-05T06:48:53.246Z,959.46
2022-08-05T06:49:12.065Z,959.45
2022-08-05T06:50:10.399Z,959.48
2022-08-05T06:51:21.865Z,959.52
2022-08-05T06:52:37.747Z,959.59
2022-08-05T06:53:21.626Z,959.62
2022-08-05T06:54:12.019Z,959.68
2022-08-05T06:55:10.349Z,959.79
2022-08-05T06:56:26.741Z,959.82
2022-08-05T06:57:56.777Z,959.87
2022-08-05T06:58:20.057Z,959.88
2022-08-05T06:59:11.972Z,959.91
2022-08-05T07:00:10.312Z,959.91
2022-08-05T07:01:11.321Z,959.88
2022-08-05T07:02:10.276Z,959.85
2022-08-05T07:03:10.263Z,959.87
2022-08-05T07:04:10.257Z,959.82
2022-08-05T07:05:15.420Z,959.79
2022-08-05T07:06:13.914Z,959.69
2022-08-05T07:07:10.226Z,959.70
2022-08-05T07:08:10.819Z,959.74
2022-08-05T07:09:10.236Z,959.76
2022-08-05T07:10:10.188Z,959.82
2022-08-05T07:11:15.206Z,959.85
2022-08-05T07:12:10.197Z,959.86
2022-08-05T07:13:10.167Z,959.89
2022-08-05T07:14:15.376Z,959.89
2022-08-05T07:15:11.148Z,959.91
2022-08-05T07:16:12.063Z,959.94
2022-08-05T07:18:00.619Z,959.94
2022-08-05T07:18:14.650Z,959.93
2022-08-05T07:19:11.126Z,959.91
2022-08-05T07:20:32.429Z,959.91
2022-08-05T07:21:11.083Z,959.96
2022-08-05T07:22:10.074Z,960.02
2022-08-05T07:23:10.050Z,960.06
2022-08-05T07:24:11.488Z,960.06
2022-08-05T07:25:22.603Z,960.09
2022-08-05T07:26:13.275Z,960.10
2022-08-05T07:27:10.034Z,960.11
2022-08-05T07:28:11.980Z,960.12
2022-08-05T07:29:09.992Z,960.07
2022-08-05T07:30:27.321Z,960.05
2022-08-05T07:31:10.974Z,960.01
2022-08-05T07:32:09.965Z,960.02
2022-08-05T07:33:15.534Z,959.98
2022-08-05T07:34:13.876Z,960.00
2022-08-05T07:36:05.300Z,960.02
2022-08-05T07:36:20.849Z,960.04
2022-08-05T07:37:11.531Z,960.11
2022-08-05T07:38:12.425Z,960.06
2022-08-05T07:39:24.807Z,960.08
2022-08-05T07:40:31.429Z,960.04
2022-08-05T07:42:09.013Z,960.04
2022-08-05T07:42:13.712Z,960.06
2022-08-05T07:43:20.148Z,960.11
2022-08-05T07:44:18.492Z,960.16
2022-08-05T07:45:09.830Z,960.13
2022-08-05T07:46:24.805Z,960.10
2022-08-05T07:47:10.822Z,960.06
2022-08-05T07:48:09.800Z,960.09
2022-08-05T07:49:09.810Z,960.12
2022-08-05T07:50:09.781Z,960.08
2022-08-05T07:51:14.413Z,960.09
2022-08-05T07:52:09.829Z,960.09
2022-08-05T07:53:09.752Z,960.07
2022-08-05T07:54:10.507Z,960.05
2022-08-05T07:55:16.030Z,960.10
2022-08-05T07:56:39.217Z,960.06
2022-08-05T07:57:16.969Z,960.11
2022-08-05T07:58:55.059Z,960.12
2022-08-05T07:59:10.687Z,960.15
2022-08-05T08:00:11.579Z,960.15
2022-08-05T08:01:12.272Z,960.11
2022-08-05T08:02:10.607Z,960.10
2022-08-05T08:03:13.838Z,960.09
2022-08-05T08:04:09.639Z,960.12
2022-08-05T08:05:09.622Z,960.11
2022-08-05T08:06:09.607Z,960.14
2022-08-05T08:07:09.618Z,960.17
2022-08-05T08:08:12.459Z,960.20
2022-08-05T08:09:09.585Z,960.21
2022-08-05T08:10:09.574Z,960.24
2022-08-05T08:11:13.702Z,960.22
2022-08-05T08:12:27.542Z,960.22
2022-08-05T08:13:11.565Z,960.18
2022-08-05T08:14:10.539Z,960.22
2022-08-05T08:15:15.277Z,960.23
2022-08-05T08:16:49.986Z,960.21
2022-08-05T08:17:10.522Z,960.26
2022-08-05T08:18:14.315Z,960.23
2022-08-05T08:19:09.474Z,960.19
2022-08-05T08:20:43.307Z,960.18
2022-08-05T08:21:15.786Z,960.18
2022-08-05T08:22:09.445Z,960.22
2022-08-05T08:23:11.675Z,960.20
2022-08-05T08:24:13.775Z,960.23
2022-08-05T08:25:15.768Z,960.25
2022-08-05T08:26:13.409Z,960.27
2022-08-05T08:27:10.407Z,960.28
2022-08-05T08:28:18.390Z,960.34
2022-08-05T08:29:45.466Z,960.33
2022-08-05T08:30:29.953Z,960.37
2022-08-05T08:31:14.592Z,960.38
2022-08-05T08:32:10.937Z,960.39
2022-08-05T08:33:09.341Z,960.37
2022-08-05T08:34:09.327Z,960.36
2022-08-05T08:35:13.676Z,960.35
2022-08-05T08:37:10.292Z,960.35
2022-08-05T08:38:11.632Z,960.35
2022-08-05T08:39:15.414Z,960.34
2022-08-05T08:40:09.265Z,960.32
2022-08-05T08:41:14.007Z,960.37
2022-08-05T08:42:22.467Z,960.31
2022-08-05T08:45:16.608Z,960.26
2022-08-05T08:45:17.147Z,960.30
2022-08-05T08:45:23.433Z,960.27
2022-08-05T08:46:10.330Z,960.27
2022-08-05T08:47:21.757Z,960.32
2022-08-05T08:48:23.105Z,960.24
2022-08-05T08:50:23.287Z,960.27
2022-08-05T08:50:31.671Z,960.26
2022-08-05T08:52:02.097Z,960.24
2022-08-05T08:52:13.670Z,960.23
2022-08-05T08:53:12.470Z,960.21
2022-08-05T08:55:13.166Z,960.23
2022-08-05T08:56:12.104Z,960.25
2022-08-05T08:57:11.314Z,960.20
2022-08-05T08:58:09.082Z,960.25
2022-08-05T08:59:14.820Z,960.24
2022-08-05T09:00:09.074Z,960.25
2022-08-05T09:01:11.000Z,960.20
2022-08-05T09:02:09.055Z,960.23
2022-08-05T09:03:09.035Z,960.26
2022-08-05T09:04:10.611Z,960.25
2022-08-05T09:05:17.977Z,960.31
2022-08-05T09:06:11.566Z,960.36
2022-08-05T09:07:19.386Z,960.33
2022-08-05T09:08:09.837Z,960.38
2022-08-05T09:09:08.971Z,960.34
2022-08-05T09:10:08.955Z,960.32
2022-08-05T09:11:13.693Z,960.38
2022-08-05T09:12:19.882Z,960.34
2022-08-05T09:13:08.927Z,960.35
2022-08-05T09:14:54.289Z,960.33
2022-08-05T09:15:09.907Z,960.34
2022-08-05T09:16:09.126Z,960.28
2022-08-05T09:17:09.424Z,960.29
2022-08-05T09:18:09.877Z,960.31
2022-08-05T09:19:08.869Z,960.31
2022-08-05T09:20:08.871Z,960.25
2022-08-05T09:21:11.777Z,960.24
2022-08-05T09:22:23.427Z,960.25
2022-08-05T09:23:09.832Z,960.25
2022-08-05T09:24:08.822Z,960.24
2022-08-05T09:25:13.830Z,960.21
2022-08-05T09:26:20.493Z,960.18
2022-08-05T09:27:08.811Z,960.25
2022-08-05T09:28:08.805Z,960.20
2022-08-05T09:29:09.095Z,960.18
2022-08-05T09:30:08.811Z,960.20
2022-08-05T09:31:43.805Z,960.19
2022-08-05T09:32:41.398Z,960.15
2022-08-05T09:33:09.741Z,960.16
2022-08-05T09:34:09.842Z,960.15
2022-08-05T09:35:08.719Z,960.18
2022-08-05T09:36:11.734Z,960.15
2022-08-05T09:37:14.991Z,960.15
2022-08-05T09:38:12.093Z,960.13
2022-08-05T09:39:18.255Z,960.08
2022-08-05T09:40:08.680Z,960.05
2022-08-05T09:41:11.668Z,959.98
2022-08-05T09:42:08.658Z,959.90
2022-08-05T09:43:09.677Z,959.99
2022-08-05T09:44:08.620Z,959.95
2022-08-05T09:46:04.719Z,959.98
2022-08-05T09:46:09.612Z,959.92
2022-08-05T09:47:10.264Z,959.91
2022-08-05T09:48:08.585Z,959.92
2022-08-05T09:49:19.056Z,959.92
2022-08-05T09:50:08.562Z,959.91
2022-08-05T09:51:14.871Z,959.89
2022-08-05T09:52:08.537Z,959.90
2022-08-05T09:53:09.115Z,959.88
2022-08-05T09:54:10.064Z,959.89
2022-08-05T09:55:59.051Z,959.87
2022-08-05T09:56:13.296Z,959.87
2022-08-05T09:57:23.457Z,959.88
2022-08-05T09:58:08.479Z,959.87
2022-08-05T09:59:08.477Z,959.79
2022-08-05T10:00:08.458Z,959.77
2022-08-05T10:01:15.421Z,959.74
2022-08-05T10:02:09.491Z,959.71
2022-08-05T10:03:08.494Z,959.72
2022-08-05T10:04:10.403Z,959.71
2022-08-05T10:05:08.430Z,959.74
2022-08-05T10:06:15.451Z,959.72
2022-08-05T10:07:20.038Z,959.75
2022-08-05T10:08:35.947Z,959.74
2022-08-05T10:09:09.374Z,959.74
2022-08-05T10:10:15.103Z,959.74
2022-08-05T10:11:12.355Z,959.71
2022-08-05T10:12:30.352Z,959.67
2022-08-05T10:13:09.677Z,959.66
2022-08-05T10:14:08.314Z,959.65
2022-08-05T10:15:08.326Z,959.62
2022-08-05T10:16:08.304Z,959.61
2022-08-05T10:17:08.296Z,959.57
2022-08-05T10:18:09.282Z,959.54
2022-08-05T10:19:09.409Z,959.54
2022-08-05T10:20:10.100Z,959.60
2022-08-05T10:21:11.983Z,959.64
2022-08-05T10:22:09.029Z,959.58
2022-08-05T10:23:22.112Z,959.61
2022-08-05T10:24:09.359Z,959.60
2022-08-05T10:25:08.222Z,959.58
2022-08-05T10:26:13.826Z,959.54
2022-08-05T10:27:08.266Z,959.54
2022-08-05T10:28:13.166Z,959.60
2022-08-05T10:29:09.187Z,959.59
2022-08-05T10:31:20.685Z,959.58
2022-08-05T10:32:50.555Z,959.59
2022-08-05T10:32:54.992Z,959.61
2022-08-05T10:33:14.712Z,959.61
2022-08-05T10:34:08.333Z,959.57
2022-08-05T10:35:08.115Z,959.54
2022-08-05T10:36:08.105Z,959.51
2022-08-05T10:37:08.098Z,959.49
2022-08-05T10:38:08.388Z,959.48
2022-08-05T10:39:10.418Z,959.48
2022-08-05T10:40:17.814Z,959.50
2022-08-05T10:41:12.362Z,959.50
2022-08-05T10:42:08.059Z,959.51
2022-08-05T10:43:08.029Z,959.47
2022-08-05T10:44:08.046Z,959.45
2022-08-05T10:45:20.891Z,959.45
2022-08-05T10:46:09.007Z,959.45
2022-08-05T10:47:26.271Z,959.40
2022-08-05T10:48:31.654Z,959.40
2022-08-05T10:49:10.515Z,959.36
2022-08-05T10:50:22.363Z,959.33
2022-08-05T10:51:22.164Z,959.36
2022-08-05T10:52:10.379Z,959.35
2022-08-05T10:53:07.961Z,959.35
2022-08-05T10:54:28.282Z,959.33
2022-08-05T10:55:08.913Z,959.36
2022-08-05T10:56:21.176Z,959.32
2022-08-05T10:57:07.914Z,959.33
2022-08-05T10:58:07.885Z,959.33
2022-08-05T10:59:12.520Z,959.26
2022-08-05T11:00:17.970Z,959.35
2022-08-05T11:01:07.866Z,959.32
2022-08-05T11:02:14.721Z,959.34
2022-08-05T11:03:24.646Z,959.37
2022-08-05T11:04:08.827Z,959.35
2022-08-05T11:05:07.837Z,959.37
2022-08-05T11:06:08.272Z,959.35
2022-08-05T11:07:07.799Z,959.34
2022-08-05T11:08:33.674Z,959.33
2022-08-05T11:09:08.780Z,959.32
2022-08-05T11:10:09.924Z,959.28
2022-08-05T11:11:16.551Z,959.31
2022-08-05T11:12:07.788Z,959.31
2022-08-05T11:13:07.755Z,959.28
2022-08-05T11:14:07.731Z,959.29
2022-08-05T11:15:19.227Z,959.31
2022-08-05T11:16:07.722Z,959.28
2022-08-05T11:17:56.776Z,959.27
2022-08-05T11:18:11.617Z,959.28
2022-08-05T11:20:11.435Z,959.22
2022-08-05T11:20:11.436Z,959.26
2022-08-05T11:21:11.777Z,959.26
2022-08-05T11:22:07.645Z,959.30
2022-08-05T11:23:09.003Z,959.29
2022-08-05T11:24:14.784Z,959.27
2022-08-05T11:25:16.862Z,959.26
2022-08-05T11:26:11.607Z,959.26
2022-08-05T11:27:07.661Z,959.30
2022-08-05T11:28:07.769Z,959.25
2022-08-05T11:29:12.973Z,959.24
2022-08-05T11:30:07.699Z,959.26
2022-08-05T11:31:07.573Z,959.21
2022-08-05T11:32:07.548Z,959.21
2022-08-05T11:33:07.541Z,959.21
2022-08-05T11:34:08.095Z,959.23
2022-08-05T11:35:07.522Z,959.16
2022-08-05T11:36:08.967Z,959.11
2022-08-05T11:38:26.768Z,959.11
2022-08-05T11:38:29.748Z,959.14
2022-08-05T11:39:08.539Z,959.17
2022-08-05T11:40:07.519Z,959.11
2022-08-05T11:41:36.839Z,959.10
2022-08-05T11:42:08.477Z,959.08
2022-08-05T11:43:07.447Z,959.02
2022-08-05T11:44:08.550Z,959.01
2022-08-05T11:45:23.093Z,959.04
2022-08-05T11:46:14.990Z,959.04
2022-08-05T11:47:13.973Z,959.03
2022-08-05T11:48:07.429Z,959.01
2022-08-05T11:49:07.986Z,959.02
2022-08-05T11:50:07.554Z,959.04
2022-08-05T11:51:07.367Z,958.97
2022-08-05T11:52:11.918Z,958.98
2022-08-05T11:53:09.821Z,959.04
2022-08-05T11:54:07.346Z,959.00
2022-08-05T11:55:10.701Z,959.04
2022-08-05T11:56:11.270Z,959.03
2022-08-05T11:57:08.458Z,959.03
2022-08-05T11:58:11.846Z,959.04
2022-08-05T11:59:13.892Z,959.03
2022-08-05T12:00:07.284Z,958.98
2022-08-05T12:01:08.367Z,959.02
2022-08-05T12:02:07.263Z,958.99
2022-08-05T12:03:08.371Z,958.97
2022-08-05T12:04:07.235Z,958.95
2022-08-05T12:05:17.939Z,958.95
2022-08-05T12:06:10.128Z,958.97
2022-08-05T12:07:07.214Z,958.95
2022-08-05T12:08:09.978Z,958.95
2022-08-05T12:09:07.193Z,958.95
2022-08-05T12:10:09.540Z,958.92
2022-08-05T12:11:10.178Z,958.91
2022-08-05T12:12:07.209Z,958.92
2022-08-05T12:13:16.428Z,958.92
2022-08-05T12:14:08.151Z,958.87
2022-08-05T12:15:07.681Z,958.89
2022-08-05T12:16:14.146Z,958.90
2022-08-05T12:17:22.697Z,958.86
2022-08-05T12:18:11.062Z,958.87
2022-08-05T12:19:08.193Z,958.85
2022-08-05T12:20:26.939Z,958.83
2022-08-05T12:21:08.073Z,958.82
2022-08-05T12:22:09.595Z,958.82
2022-08-05T12:23:07.084Z,958.83
2022-08-05T12:24:07.585Z,958.83
2022-08-05T12:25:07.035Z,958.80
2022-08-05T12:26:10.027Z,958.84
2022-08-05T12:27:09.750Z,958.83
2022-08-05T12:28:07.010Z,958.80
2022-08-05T12:29:09.913Z,958.78
2022-08-05T12:30:06.984Z,958.82
2022-08-05T12:31:06.980Z,958.77
2022-08-05T12:32:09.476Z,958.77
2022-08-05T12:33:27.297Z,958.77
2022-08-05T12:34:07.958Z,958.76